Butts AAF (Fort Carson) Air Field Fort Carson US
ICAO: KFCS
IATA: FCS
Category: Medium
Scheduled Services: No

Elevation: 5838 ft
TransAlt. 18000 ft.

Airport Communications:
SPRINGS APP/DEP:124
FLT FLW:38.35
ATIS:108.8
PMSV METRO:44.1
PTD/OPS:141.15
TWR:125.5

KFCS Zoom In..

If Map Doesn't Load, Click Here

Runways:

(A) RW 04 length 2307 ft width 75 ft
---- / hdg 39

(B) RW 13 length 4572 ft width 75 ft
---- / hdg 126

(C) RW 22 length 2307 ft width 75 ft
---- / hdg 219

(D) RW 31 length 4572 ft width 75 ft
---- / hdg 306

Location; KFCS
Day. 18 / Time. 19.56 Zulu
* Altimeter: 30.01
* Temperature: 33° c. 91.4°f.
* Wind from: 160° Speed 14 kn with Gusts up to 21 kn.
Dewpoint: 01° c.
Visibility: 10 Statute Miles.
Clouds: Clear (automated report).

KFCS 181956Z AUTO 16014G21KT 10SM CLR 33/01 A3001 RMK AO2 SLP092 T03270007


Wind From 160°
Speed 14 kn.

 
 
jpsmedia.com for Web Design worldairports.se 2018   terms of use